Terminal Aerodrome Forecast
Issued by NWS Sterling, VA

Current Version | Previous Version | Graphics & Text | Print | Product List | Glossary On
Versions: 1 2 3 4 5 6 7 8 9 10 11 12 13 14
000
FTUS41 KLWX 160500 RRA
TAFMRB
TAF
KMRB 160541Z 1606/1706 33018G27KT P6SM SCT050
     FM160700 33017G26KT P6SM BKN050
     FM161000 33016G22KT P6SM SCT080
     FM161600 01013KT P6SM FEW250
     FM162100 03008KT P6SM FEW250
     FM170000 08004KT P6SM SKC=

USA.gov is the U.S. government's official web portal to all federal, state and local government web resources and services.